Aérodrome :
LOGIN :

S'inscrire | Disclaimer

   EN    FR    IT 

 










Légende :    VFR   VFR Marginal   IFR   IFR Intensif   IFR Très Intensif
Visi : 
Plafond : 
>= 8 km
>= 3000ft
5 à 8 km
1000 à 3000 ft
1500m à 5 km
500 à 1000 ft
800 à 1500m
200 à 500 ft
< 800m
< 200 ft
Symboles :   Orages  Brouillard  Fortes neiges  Fortes précipitations  Vent > 20 kt
SIGMETs :   Divers  Orages  Givrage  Turbulence  Onde Orograph.  Cendres Volcan.







- Altitude de l'aérodrome : 580 ft
- Voir les cartes d'approche


LFOA - Avord

DERNIER METAR :
  • 290530Z AUTO 10005KT 8000 NSC 01/01 Q1017

METARs EXPIRÉS :
  • 290500Z AUTO 10004KT 6000 NSC 01/01 Q1017
  • 290430Z AUTO 10001KT 9000 NSC 01/01 Q1017
  • 290400Z AUTO 08003KT 9000 NSC 01/01 Q1017
  • 290330Z AUTO 11003KT CAVOK 02/01 Q1017
  • 290300Z AUTO 09002KT CAVOK 01/01 Q1018

TAF TAF LFOA
Valide du 28 à 15h jusqu'au 29 à 15h UTC


281400Z 2815/2915 26008KT 9999 SCT040 FEW040TCU
TEMPO 2815/2822 24010G20KT 4000 SHRA FEW015 BKN040TCU
PROB30
TEMPO 2901/2907 1500 BCFG
Pas de NOTAMs connus pour ce terrain.



MET'MAP, la Météo Aéronautique d'un coup d'oeil ! - Copyright ORBIFLY Décembre 2007 - Disclaimer

ORBIFLY MET'MAP TEAM :

Programmation & Développement : Alexandra Zaïnal
Conception & Développement : Baudouin d'Aumeries
Co-Programmation & Développement : Marc-Olivier Méhu
Soutien technique & logistique : Manuel Goepfert

Contact : metmap@orbifly.com




SOURCES & CREDITS :

   NOAA